Bow Flora — LAEX5 — position and weather

sailwx.info

Track history (hours):
 
Tides and Currents Weather Stations Pressure Air Temp Water Temp Dewpoint Dewpoint Depression Visibility Wind Speed Wind Dir Waves Ship Positions

Bow Flora

Last reported at 2018-Jun-14 12:39 UTC. Time now 2018-Jun-20 07:22 UTC.
Position N 25°30' W 079°36'.

Length 183 m; draft 8.8 m.

Type: Tanker. MMSI: 259927000.

Date/timePositionNaut miles runAvg speedWind from/ knotsBaromVisibWave heightAir tempDewpointWater temp
2018-Jun-14 12:39N 25°30' W 079°36'211.5
2018-Jun-14 12:28N 25°32' W 079°35'511.5
2018-Jun-14 12:00N 25°37' W 079°35'611.5
2018-Jun-14 11:30N 25°43' W 079°34'611.5
2018-Jun-14 11:00N 25°49' W 079°33'611.5
2018-Jun-14 10:30N 25°54' W 079°33'611.4
2018-Jun-14 09:59N 26°00' W 079°32'511.4
2018-Jun-14 09:30N 26°06' W 079°31'611.4
2018-Jun-14 08:59N 26°11' W 079°31'511.4
2018-Jun-14 08:30N 26°17' W 079°30'  
2018-Jun-11 08:43N 40°30' W 073°57'310.9
2018-Jun-11 08:25N 40°32' W 074°01'511.9
2018-Jun-11 07:58N 40°37' W 074°03'3 6.3
2018-Jun-11 07:30N 40°39' W 074°06'0 0.2
2018-Jun-11 06:57N 40°39' W 074°06'0 0.0
2018-Jun-11 06:30N 40°39' W 074°06'0 0.0
2018-Jun-11 00:12N 40°39' W 074°06'0 0.4
2018-Jun-11 00:00N 40°39' W 074°06'2 4.7
2018-Jun-10 23:30N 40°39' W 074°09'3 5.3
2018-Jun-10 23:01N 40°41' W 074°08'0 1.0
2018-Jun-10 22:30N 40°42' W 074°08'0 0.2
2018-Jun-10 22:00N 40°42' W 074°08'0 0.0
2018-Jun-10 21:30N 40°42' W 074°08'0 0.0
2018-Jun-09 20:44N 40°42' W 074°08'0 0.3
2018-Jun-09 20:30N 40°42' W 074°08'2 3.0
2018-Jun-09 20:00N 40°40' W 074°08'1 2.5
2018-Jun-09 19:30N 40°39' W 074°09'3 6.4
2018-Jun-09 19:00N 40°39' W 074°05'4 7.1
2018-Jun-09 18:30N 40°36' W 074°02'4 7.5
2018-Jun-09 18:00N 40°32' W 074°01'610.6
2018-Jun-09 17:27N 40°29' W 073°55'  
Track history (hours):
 
Tides and Currents Weather Stations Pressure Air Temp Water Temp Dewpoint Dewpoint Depression Visibility Wind Speed Wind Dir Waves Ship Positions

Bow Flora

Last reported at 2018-Jun-14 12:39 UTC. Time now 2018-Jun-20 07:22 UTC.
Position N 25°30' W 079°36'.

Length 183 m; draft 8.8 m.

Type: Tanker. MMSI: 259927000.

Date/timePositionNaut miles runAvg speedWind from/ knotsBaromVisibWave heightAir tempDewpointWater temp
2018-Jun-14 12:39N 25°30' W 079°36'211.5
2018-Jun-14 12:28N 25°32' W 079°35'511.5
2018-Jun-14 12:00N 25°37' W 079°35'611.5
2018-Jun-14 11:30N 25°43' W 079°34'611.5
2018-Jun-14 11:00N 25°49' W 079°33'611.5
2018-Jun-14 10:30N 25°54' W 079°33'611.4
2018-Jun-14 09:59N 26°00' W 079°32'511.4
2018-Jun-14 09:30N 26°06' W 079°31'611.4
2018-Jun-14 08:59N 26°11' W 079°31'511.4
2018-Jun-14 08:30N 26°17' W 079°30'  
2018-Jun-11 08:43N 40°30' W 073°57'310.9
2018-Jun-11 08:25N 40°32' W 074°01'511.9
2018-Jun-11 07:58N 40°37' W 074°03'3 6.3
2018-Jun-11 07:30N 40°39' W 074°06'0 0.2
2018-Jun-11 06:57N 40°39' W 074°06'0 0.0
2018-Jun-11 06:30N 40°39' W 074°06'0 0.0
2018-Jun-11 00:12N 40°39' W 074°06'0 0.4
2018-Jun-11 00:00N 40°39' W 074°06'2 4.7
2018-Jun-10 23:30N 40°39' W 074°09'3 5.3
2018-Jun-10 23:01N 40°41' W 074°08'0 1.0
2018-Jun-10 22:30N 40°42' W 074°08'0 0.2
2018-Jun-10 22:00N 40°42' W 074°08'0 0.0
2018-Jun-10 21:30N 40°42' W 074°08'0 0.0
2018-Jun-09 20:44N 40°42' W 074°08'0 0.3
2018-Jun-09 20:30N 40°42' W 074°08'2 3.0
2018-Jun-09 20:00N 40°40' W 074°08'1 2.5
2018-Jun-09 19:30N 40°39' W 074°09'3 6.4
2018-Jun-09 19:00N 40°39' W 074°05'4 7.1
2018-Jun-09 18:30N 40°36' W 074°02'4 7.5
2018-Jun-09 18:00N 40°32' W 074°01'610.6
2018-Jun-09 17:27N 40°29' W 073°55'  

Dump ship's entire track history